sensor_id;sensor_type;location;lat;lon;timestamp;P1;durP1;ratioP1;P2;durP2;ratioP2
13687;SDS011;6916;51.504;7.416;2022-12-18T00:02:19;36.60;;;23.77;;
13687;SDS011;6916;51.504;7.416;2022-12-18T00:07:41;35.43;;;23.33;;
13687;SDS011;6916;51.504;7.416;2022-12-18T00:13:03;37.73;;;23.60;;
13687;SDS011;6916;51.504;7.416;2022-12-18T00:18:25;31.77;;;22.53;;
13687;SDS011;6916;51.504;7.416;2022-12-18T00:23:48;33.67;;;22.63;;
13687;SDS011;6916;51.504;7.416;2022-12-18T00:29:12;39.10;;;22.40;;
13687;SDS011;6916;51.504;7.416;2022-12-18T00:34:38;33.37;;;21.80;;
13687;SDS011;6916;51.504;7.416;2022-12-18T00:40:00;34.73;;;23.13;;
13687;SDS011;6916;51.504;7.416;2022-12-18T00:45:23;34.97;;;23.27;;
13687;SDS011;6916;51.504;7.416;2022-12-18T00:50:50;35.80;;;24.73;;
13687;SDS011;6916;51.504;7.416;2022-12-18T00:56:12;35.37;;;22.80;;
13687;SDS011;6916;51.504;7.416;2022-12-18T01:01:36;32.10;;;22.10;;
13687;SDS011;6916;51.504;7.416;2022-12-18T01:06:58;30.57;;;21.40;;
13687;SDS011;6916;51.504;7.416;2022-12-18T01:12:20;33.20;;;22.23;;
13687;SDS011;6916;51.504;7.416;2022-12-18T01:17:45;36.53;;;23.10;;
13687;SDS011;6916;51.504;7.416;2022-12-18T01:23:07;32.53;;;22.47;;
13687;SDS011;6916;51.504;7.416;2022-12-18T01:28:29;34.57;;;23.43;;
13687;SDS011;6916;51.504;7.416;2022-12-18T01:33:53;33.40;;;23.27;;
13687;SDS011;6916;51.504;7.416;2022-12-18T01:39:16;32.57;;;22.17;;
13687;SDS011;6916;51.504;7.416;2022-12-18T01:50:36;32.03;;;21.77;;
13687;SDS011;6916;51.504;7.416;2022-12-18T01:56:01;32.60;;;21.43;;
13687;SDS011;6916;51.504;7.416;2022-12-18T02:01:24;30.60;;;21.47;;
13687;SDS011;6916;51.504;7.416;2022-12-18T02:06:47;35.13;;;22.30;;
13687;SDS011;6916;51.504;7.416;2022-12-18T02:12:16;31.47;;;21.00;;
13687;SDS011;6916;51.504;7.416;2022-12-18T02:17:43;32.67;;;21.70;;
13687;SDS011;6916;51.504;7.416;2022-12-18T02:29:02;33.90;;;21.07;;
13687;SDS011;6916;51.504;7.416;2022-12-18T02:34:31;30.70;;;21.97;;
13687;SDS011;6916;51.504;7.416;2022-12-18T02:39:57;31.70;;;21.33;;
13687;SDS011;6916;51.504;7.416;2022-12-18T02:45:21;29.27;;;21.03;;
13687;SDS011;6916;51.504;7.416;2022-12-18T02:50:59;33.80;;;21.53;;
13687;SDS011;6916;51.504;7.416;2022-12-18T02:56:33;30.90;;;20.53;;
13687;SDS011;6916;51.504;7.416;2022-12-18T03:07:27;32.23;;;21.30;;
13687;SDS011;6916;51.504;7.416;2022-12-18T03:12:59;32.03;;;21.67;;
13687;SDS011;6916;51.504;7.416;2022-12-18T03:18:36;30.67;;;20.73;;
13687;SDS011;6916;51.504;7.416;2022-12-18T03:24:01;33.17;;;21.73;;
13687;SDS011;6916;51.504;7.416;2022-12-18T03:29:27;30.97;;;21.37;;
13687;SDS011;6916;51.504;7.416;2022-12-18T03:34:59;30.90;;;20.17;;
13687;SDS011;6916;51.504;7.416;2022-12-18T03:40:28;32.57;;;19.97;;
13687;SDS011;6916;51.504;7.416;2022-12-18T03:52:51;33.50;;;21.13;;
13687;SDS011;6916;51.504;7.416;2022-12-18T03:58:08;27.33;;;18.83;;
13687;SDS011;6916;51.504;7.416;2022-12-18T04:03:46;28.30;;;19.93;;
13687;SDS011;6916;51.504;7.416;2022-12-18T04:09:13;29.57;;;19.97;;
13687;SDS011;6916;51.504;7.416;2022-12-18T04:14:36;29.93;;;19.33;;
13687;SDS011;6916;51.504;7.416;2022-12-18T04:19:58;28.87;;;19.57;;
13687;SDS011;6916;51.504;7.416;2022-12-18T04:25:22;30.47;;;19.27;;
13687;SDS011;6916;51.504;7.416;2022-12-18T04:30:49;27.53;;;18.00;;
13687;SDS011;6916;51.504;7.416;2022-12-18T04:36:11;30.67;;;19.93;;
13687;SDS011;6916;51.504;7.416;2022-12-18T04:41:34;27.63;;;19.07;;
13687;SDS011;6916;51.504;7.416;2022-12-18T04:46:56;27.10;;;17.73;;
13687;SDS011;6916;51.504;7.416;2022-12-18T04:52:18;23.80;;;16.87;;
13687;SDS011;6916;51.504;7.416;2022-12-18T04:57:41;24.10;;;17.03;;
13687;SDS011;6916;51.504;7.416;2022-12-18T05:03:03;25.40;;;16.67;;
13687;SDS011;6916;51.504;7.416;2022-12-18T05:08:25;26.97;;;16.47;;
13687;SDS011;6916;51.504;7.416;2022-12-18T05:13:47;26.40;;;17.03;;
13687;SDS011;6916;51.504;7.416;2022-12-18T05:19:09;22.97;;;16.13;;
13687;SDS011;6916;51.504;7.416;2022-12-18T05:24:32;25.50;;;15.83;;
13687;SDS011;6916;51.504;7.416;2022-12-18T05:29:54;23.77;;;16.30;;
13687;SDS011;6916;51.504;7.416;2022-12-18T05:35:16;25.20;;;16.27;;
13687;SDS011;6916;51.504;7.416;2022-12-18T05:40:40;24.30;;;15.27;;
13687;SDS011;6916;51.504;7.416;2022-12-18T05:46:15;22.10;;;15.23;;
13687;SDS011;6916;51.504;7.416;2022-12-18T05:51:38;19.03;;;13.57;;
13687;SDS011;6916;51.504;7.416;2022-12-18T05:57:00;21.53;;;14.07;;
13687;SDS011;6916;51.504;7.416;2022-12-18T06:02:22;19.47;;;13.27;;
13687;SDS011;6916;51.504;7.416;2022-12-18T06:07:44;21.03;;;13.60;;
13687;SDS011;6916;51.504;7.416;2022-12-18T06:13:06;19.23;;;13.30;;
13687;SDS011;6916;51.504;7.416;2022-12-18T06:18:29;18.53;;;13.63;;
13687;SDS011;6916;51.504;7.416;2022-12-18T06:23:51;20.70;;;13.13;;
13687;SDS011;6916;51.504;7.416;2022-12-18T06:29:13;18.23;;;13.03;;
13687;SDS011;6916;51.504;7.416;2022-12-18T06:34:38;20.47;;;14.07;;
13687;SDS011;6916;51.504;7.416;2022-12-18T06:40:00;18.10;;;12.67;;
13687;SDS011;6916;51.504;7.416;2022-12-18T06:45:23;16.30;;;12.03;;
13687;SDS011;6916;51.504;7.416;2022-12-18T06:50:45;20.50;;;13.20;;
13687;SDS011;6916;51.504;7.416;2022-12-18T06:56:07;18.20;;;12.43;;
13687;SDS011;6916;51.504;7.416;2022-12-18T07:01:30;16.57;;;12.93;;
13687;SDS011;6916;51.504;7.416;2022-12-18T07:06:52;16.83;;;11.60;;
13687;SDS011;6916;51.504;7.416;2022-12-18T07:12:14;19.13;;;12.90;;
13687;SDS011;6916;51.504;7.416;2022-12-18T07:17:36;16.10;;;11.53;;
13687;SDS011;6916;51.504;7.416;2022-12-18T07:23:01;16.93;;;11.10;;
13687;SDS011;6916;51.504;7.416;2022-12-18T07:28:23;16.63;;;11.47;;
13687;SDS011;6916;51.504;7.416;2022-12-18T07:33:46;14.27;;;10.27;;
13687;SDS011;6916;51.504;7.416;2022-12-18T07:39:10;16.53;;;10.47;;
13687;SDS011;6916;51.504;7.416;2022-12-18T07:44:33;16.70;;;10.73;;
13687;SDS011;6916;51.504;7.416;2022-12-18T07:49:55;15.60;;;10.97;;
13687;SDS011;6916;51.504;7.416;2022-12-18T07:55:17;16.30;;;11.13;;
13687;SDS011;6916;51.504;7.416;2022-12-18T08:00:39;15.00;;;10.33;;
13687;SDS011;6916;51.504;7.416;2022-12-18T08:06:03;12.87;;;9.27;;
13687;SDS011;6916;51.504;7.416;2022-12-18T08:11:26;8.23;;;6.73;;
13687;SDS011;6916;51.504;7.416;2022-12-18T08:16:49;7.13;;;4.90;;
13687;SDS011;6916;51.504;7.416;2022-12-18T08:22:12;5.00;;;3.67;;
13687;SDS011;6916;51.504;7.416;2022-12-18T08:27:34;4.27;;;2.90;;
13687;SDS011;6916;51.504;7.416;2022-12-18T08:32:56;5.67;;;2.80;;
13687;SDS011;6916;51.504;7.416;2022-12-18T08:38:19;3.60;;;2.63;;
13687;SDS011;6916;51.504;7.416;2022-12-18T08:43:42;7.00;;;4.53;;
13687;SDS011;6916;51.504;7.416;2022-12-18T08:49:23;9.80;;;7.77;;
13687;SDS011;6916;51.504;7.416;2022-12-18T08:54:45;14.60;;;10.70;;
13687;SDS011;6916;51.504;7.416;2022-12-18T09:00:07;13.57;;;10.67;;
13687;SDS011;6916;51.504;7.416;2022-12-18T09:05:30;18.23;;;13.07;;
13687;SDS011;6916;51.504;7.416;2022-12-18T09:10:52;18.90;;;13.60;;
13687;SDS011;6916;51.504;7.416;2022-12-18T09:16:14;16.77;;;12.27;;
13687;SDS011;6916;51.504;7.416;2022-12-18T09:21:38;18.43;;;12.47;;
13687;SDS011;6916;51.504;7.416;2022-12-18T09:27:00;16.73;;;12.37;;
13687;SDS011;6916;51.504;7.416;2022-12-18T09:32:23;14.77;;;10.10;;
13687;SDS011;6916;51.504;7.416;2022-12-18T09:37:45;9.97;;;8.80;;
13687;SDS011;6916;51.504;7.416;2022-12-18T09:43:09;9.37;;;7.60;;
13687;SDS011;6916;51.504;7.416;2022-12-18T09:48:41;8.53;;;5.97;;
13687;SDS011;6916;51.504;7.416;2022-12-18T09:54:14;12.73;;;8.07;;
13687;SDS011;6916;51.504;7.416;2022-12-18T09:59:44;14.83;;;10.07;;
13687;SDS011;6916;51.504;7.416;2022-12-18T10:05:14;15.67;;;10.43;;
13687;SDS011;6916;51.504;7.416;2022-12-18T10:10:52;13.33;;;9.10;;
13687;SDS011;6916;51.504;7.416;2022-12-18T10:16:16;9.73;;;7.63;;
13687;SDS011;6916;51.504;7.416;2022-12-18T10:27:17;14.33;;;10.33;;
13687;SDS011;6916;51.504;7.416;2022-12-18T10:32:40;13.33;;;8.73;;
13687;SDS011;6916;51.504;7.416;2022-12-18T10:43:30;10.33;;;7.77;;
13687;SDS011;6916;51.504;7.416;2022-12-18T10:48:57;9.90;;;7.33;;
13687;SDS011;6916;51.504;7.416;2022-12-18T10:54:22;9.10;;;7.47;;
13687;SDS011;6916;51.504;7.416;2022-12-18T10:59:55;10.23;;;7.83;;
13687;SDS011;6916;51.504;7.416;2022-12-18T11:05:37;10.23;;;8.27;;
13687;SDS011;6916;51.504;7.416;2022-12-18T11:10:59;10.63;;;7.33;;
13687;SDS011;6916;51.504;7.416;2022-12-18T11:16:22;9.83;;;7.70;;
13687;SDS011;6916;51.504;7.416;2022-12-18T11:21:45;9.57;;;6.97;;
13687;SDS011;6916;51.504;7.416;2022-12-18T11:27:18;8.47;;;6.43;;
13687;SDS011;6916;51.504;7.416;2022-12-18T11:32:40;8.07;;;5.53;;
13687;SDS011;6916;51.504;7.416;2022-12-18T11:38:17;7.73;;;5.63;;
13687;SDS011;6916;51.504;7.416;2022-12-18T11:43:50;6.27;;;3.70;;
13687;SDS011;6916;51.504;7.416;2022-12-18T11:49:21;6.07;;;4.23;;
13687;SDS011;6916;51.504;7.416;2022-12-18T11:54:46;8.30;;;4.87;;
13687;SDS011;6916;51.504;7.416;2022-12-18T12:00:12;5.37;;;3.10;;
13687;SDS011;6916;51.504;7.416;2022-12-18T12:11:53;6.70;;;2.37;;
13687;SDS011;6916;51.504;7.416;2022-12-18T12:18:20;2.00;;;1.40;;
13687;SDS011;6916;51.504;7.416;2022-12-18T12:23:22;8.90;;;1.80;;
13687;SDS011;6916;51.504;7.416;2022-12-18T12:34:26;7.83;;;4.97;;
13687;SDS011;6916;51.504;7.416;2022-12-18T12:40:06;8.83;;;6.33;;
13687;SDS011;6916;51.504;7.416;2022-12-18T12:45:33;7.07;;;5.87;;
13687;SDS011;6916;51.504;7.416;2022-12-18T12:51:00;7.67;;;5.80;;
13687;SDS011;6916;51.504;7.416;2022-12-18T12:56:32;7.87;;;5.23;;
13687;SDS011;6916;51.504;7.416;2022-12-18T13:07:28;8.43;;;5.27;;
13687;SDS011;6916;51.504;7.416;2022-12-18T13:13:12;6.53;;;5.63;;
13687;SDS011;6916;51.504;7.416;2022-12-18T13:18:36;8.20;;;5.43;;
13687;SDS011;6916;51.504;7.416;2022-12-18T13:24:14;8.23;;;6.33;;
13687;SDS011;6916;51.504;7.416;2022-12-18T13:29:43;7.10;;;6.07;;
13687;SDS011;6916;51.504;7.416;2022-12-18T13:52:15;5.90;;;4.03;;
13687;SDS011;6916;51.504;7.416;2022-12-18T13:57:39;6.70;;;3.90;;
13687;SDS011;6916;51.504;7.416;2022-12-18T14:03:15;5.87;;;4.00;;
13687;SDS011;6916;51.504;7.416;2022-12-18T14:08:43;6.63;;;3.80;;
13687;SDS011;6916;51.504;7.416;2022-12-18T14:14:07;3.70;;;2.50;;
13687;SDS011;6916;51.504;7.416;2022-12-18T14:19:29;5.87;;;3.03;;
13687;SDS011;6916;51.504;7.416;2022-12-18T14:25:05;4.07;;;3.30;;
13687;SDS011;6916;51.504;7.416;2022-12-18T14:30:48;3.80;;;2.50;;
13687;SDS011;6916;51.504;7.416;2022-12-18T14:36:13;5.97;;;2.83;;
13687;SDS011;6916;51.504;7.416;2022-12-18T14:41:38;5.43;;;3.20;;
13687;SDS011;6916;51.504;7.416;2022-12-18T14:47:00;4.40;;;2.93;;
13687;SDS011;6916;51.504;7.416;2022-12-18T14:52:26;5.73;;;3.50;;
13687;SDS011;6916;51.504;7.416;2022-12-18T14:57:53;7.33;;;3.90;;
13687;SDS011;6916;51.504;7.416;2022-12-18T15:03:20;6.50;;;4.67;;
13687;SDS011;6916;51.504;7.416;2022-12-18T15:08:42;9.03;;;4.27;;
13687;SDS011;6916;51.504;7.416;2022-12-18T15:14:28;3.47;;;2.93;;
13687;SDS011;6916;51.504;7.416;2022-12-18T15:20:03;6.90;;;4.50;;
13687;SDS011;6916;51.504;7.416;2022-12-18T15:25:32;7.60;;;4.90;;
13687;SDS011;6916;51.504;7.416;2022-12-18T15:31:01;6.97;;;4.47;;
13687;SDS011;6916;51.504;7.416;2022-12-18T15:36:39;9.13;;;4.77;;
13687;SDS011;6916;51.504;7.416;2022-12-18T15:42:04;4.93;;;4.17;;
13687;SDS011;6916;51.504;7.416;2022-12-18T15:47:45;7.47;;;4.43;;
13687;SDS011;6916;51.504;7.416;2022-12-18T15:53:09;5.97;;;4.47;;
13687;SDS011;6916;51.504;7.416;2022-12-18T15:58:31;7.77;;;5.47;;
13687;SDS011;6916;51.504;7.416;2022-12-18T16:03:54;9.23;;;5.60;;
13687;SDS011;6916;51.504;7.416;2022-12-18T16:09:16;8.17;;;4.80;;
13687;SDS011;6916;51.504;7.416;2022-12-18T16:14:42;6.73;;;5.40;;
13687;SDS011;6916;51.504;7.416;2022-12-18T16:20:17;8.87;;;5.27;;
13687;SDS011;6916;51.504;7.416;2022-12-18T16:25:41;7.57;;;5.47;;
13687;SDS011;6916;51.504;7.416;2022-12-18T16:31:04;8.20;;;6.17;;
13687;SDS011;6916;51.504;7.416;2022-12-18T16:36:26;9.33;;;6.50;;
13687;SDS011;6916;51.504;7.416;2022-12-18T16:41:48;8.83;;;6.00;;
13687;SDS011;6916;51.504;7.416;2022-12-18T16:47:11;9.73;;;6.60;;
13687;SDS011;6916;51.504;7.416;2022-12-18T16:52:35;8.93;;;6.40;;
13687;SDS011;6916;51.504;7.416;2022-12-18T16:57:58;9.83;;;6.57;;
13687;SDS011;6916;51.504;7.416;2022-12-18T17:03:20;10.10;;;7.23;;
13687;SDS011;6916;51.504;7.416;2022-12-18T17:08:43;12.83;;;7.73;;
13687;SDS011;6916;51.504;7.416;2022-12-18T17:14:11;11.63;;;8.20;;
13687;SDS011;6916;51.504;7.416;2022-12-18T17:19:36;10.00;;;6.93;;
13687;SDS011;6916;51.504;7.416;2022-12-18T17:24:59;12.67;;;8.47;;
13687;SDS011;6916;51.504;7.416;2022-12-18T17:30:21;11.93;;;8.27;;
13687;SDS011;6916;51.504;7.416;2022-12-18T17:35:44;13.80;;;9.13;;
13687;SDS011;6916;51.504;7.416;2022-12-18T17:41:06;12.50;;;8.10;;
13687;SDS011;6916;51.504;7.416;2022-12-18T17:46:32;12.77;;;9.03;;
13687;SDS011;6916;51.504;7.416;2022-12-18T17:51:55;14.10;;;8.97;;
13687;SDS011;6916;51.504;7.416;2022-12-18T17:57:18;15.57;;;8.60;;
13687;SDS011;6916;51.504;7.416;2022-12-18T18:02:41;15.50;;;9.37;;
13687;SDS011;6916;51.504;7.416;2022-12-18T18:08:03;13.80;;;9.70;;
13687;SDS011;6916;51.504;7.416;2022-12-18T18:13:26;16.10;;;11.43;;
13687;SDS011;6916;51.504;7.416;2022-12-18T18:19:07;16.30;;;10.33;;
13687;SDS011;6916;51.504;7.416;2022-12-18T18:24:32;12.07;;;8.90;;
13687;SDS011;6916;51.504;7.416;2022-12-18T18:29:54;11.30;;;8.33;;
13687;SDS011;6916;51.504;7.416;2022-12-18T18:35:16;13.27;;;9.10;;
13687;SDS011;6916;51.504;7.416;2022-12-18T18:40:38;12.43;;;8.07;;
13687;SDS011;6916;51.504;7.416;2022-12-18T18:46:01;13.07;;;9.13;;
13687;SDS011;6916;51.504;7.416;2022-12-18T18:51:24;12.43;;;7.73;;
13687;SDS011;6916;51.504;7.416;2022-12-18T18:56:50;13.87;;;9.27;;
13687;SDS011;6916;51.504;7.416;2022-12-18T19:02:13;14.00;;;8.43;;
13687;SDS011;6916;51.504;7.416;2022-12-18T19:07:35;12.60;;;8.07;;
13687;SDS011;6916;51.504;7.416;2022-12-18T19:12:58;12.80;;;9.17;;
13687;SDS011;6916;51.504;7.416;2022-12-18T19:18:39;11.80;;;8.20;;
13687;SDS011;6916;51.504;7.416;2022-12-18T19:24:01;14.37;;;9.83;;
13687;SDS011;6916;51.504;7.416;2022-12-18T19:29:23;12.93;;;8.73;;
13687;SDS011;6916;51.504;7.416;2022-12-18T19:34:46;15.73;;;10.10;;
13687;SDS011;6916;51.504;7.416;2022-12-18T19:40:08;15.50;;;9.50;;
13687;SDS011;6916;51.504;7.416;2022-12-18T19:45:31;13.17;;;9.27;;
13687;SDS011;6916;51.504;7.416;2022-12-18T19:50:54;14.40;;;9.23;;
13687;SDS011;6916;51.504;7.416;2022-12-18T19:56:17;14.10;;;9.13;;
13687;SDS011;6916;51.504;7.416;2022-12-18T20:01:41;14.27;;;9.43;;
13687;SDS011;6916;51.504;7.416;2022-12-18T20:07:04;13.67;;;8.90;;
13687;SDS011;6916;51.504;7.416;2022-12-18T20:12:26;15.37;;;9.70;;
13687;SDS011;6916;51.504;7.416;2022-12-18T20:17:48;13.73;;;9.17;;
13687;SDS011;6916;51.504;7.416;2022-12-18T20:23:12;14.37;;;9.33;;
13687;SDS011;6916;51.504;7.416;2022-12-18T20:28:34;13.03;;;8.60;;
13687;SDS011;6916;51.504;7.416;2022-12-18T20:33:56;14.90;;;8.50;;
13687;SDS011;6916;51.504;7.416;2022-12-18T20:39:19;14.37;;;8.37;;
13687;SDS011;6916;51.504;7.416;2022-12-18T20:44:41;13.70;;;9.03;;
13687;SDS011;6916;51.504;7.416;2022-12-18T20:50:04;13.60;;;9.70;;
13687;SDS011;6916;51.504;7.416;2022-12-18T20:55:26;15.13;;;10.00;;
13687;SDS011;6916;51.504;7.416;2022-12-18T21:00:49;14.40;;;8.73;;
13687;SDS011;6916;51.504;7.416;2022-12-18T21:06:11;15.47;;;9.33;;
13687;SDS011;6916;51.504;7.416;2022-12-18T21:11:34;13.33;;;8.60;;
13687;SDS011;6916;51.504;7.416;2022-12-18T21:17:15;13.33;;;8.63;;
13687;SDS011;6916;51.504;7.416;2022-12-18T21:22:37;15.80;;;9.00;;
13687;SDS011;6916;51.504;7.416;2022-12-18T21:27:59;14.70;;;8.50;;
13687;SDS011;6916;51.504;7.416;2022-12-18T21:33:23;14.70;;;9.73;;
13687;SDS011;6916;51.504;7.416;2022-12-18T21:38:45;16.57;;;9.73;;
13687;SDS011;6916;51.504;7.416;2022-12-18T21:44:09;15.10;;;9.60;;
13687;SDS011;6916;51.504;7.416;2022-12-18T21:49:32;13.37;;;9.13;;
13687;SDS011;6916;51.504;7.416;2022-12-18T21:54:55;15.23;;;9.47;;
13687;SDS011;6916;51.504;7.416;2022-12-18T22:00:17;12.90;;;9.20;;
13687;SDS011;6916;51.504;7.416;2022-12-18T22:05:39;12.77;;;8.83;;
13687;SDS011;6916;51.504;7.416;2022-12-18T22:11:01;12.13;;;8.30;;
13687;SDS011;6916;51.504;7.416;2022-12-18T22:16:23;13.73;;;8.97;;
13687;SDS011;6916;51.504;7.416;2022-12-18T22:21:46;13.23;;;8.67;;
13687;SDS011;6916;51.504;7.416;2022-12-18T22:27:09;16.03;;;9.93;;
13687;SDS011;6916;51.504;7.416;2022-12-18T22:32:32;13.67;;;8.80;;
13687;SDS011;6916;51.504;7.416;2022-12-18T22:37:54;14.13;;;8.73;;
13687;SDS011;6916;51.504;7.416;2022-12-18T22:43:19;12.50;;;7.83;;
13687;SDS011;6916;51.504;7.416;2022-12-18T22:48:41;13.67;;;9.80;;
13687;SDS011;6916;51.504;7.416;2022-12-18T22:54:04;15.37;;;9.47;;
13687;SDS011;6916;51.504;7.416;2022-12-18T22:59:26;14.90;;;10.30;;
13687;SDS011;6916;51.504;7.416;2022-12-18T23:04:48;14.87;;;9.60;;
13687;SDS011;6916;51.504;7.416;2022-12-18T23:10:10;15.37;;;9.60;;
13687;SDS011;6916;51.504;7.416;2022-12-18T23:15:33;15.27;;;8.67;;
13687;SDS011;6916;51.504;7.416;2022-12-18T23:20:55;18.10;;;10.77;;
13687;SDS011;6916;51.504;7.416;2022-12-18T23:26:18;21.83;;;11.10;;
13687;SDS011;6916;51.504;7.416;2022-12-18T23:31:44;18.23;;;10.80;;
13687;SDS011;6916;51.504;7.416;2022-12-18T23:37:07;16.07;;;10.57;;
13687;SDS011;6916;51.504;7.416;2022-12-18T23:42:29;15.70;;;10.47;;
13687;SDS011;6916;51.504;7.416;2022-12-18T23:47:51;18.00;;;10.40;;
13687;SDS011;6916;51.504;7.416;2022-12-18T23:53:13;17.53;;;10.57;;
13687;SDS011;6916;51.504;7.416;2022-12-18T23:58:36;17.10;;;10.57;;
